20OK weather

Will and Wiley's Aerodrome
Claremore, Oklahoma, United States

Public forecast

Using degrees Fahrenheit for public forecast. Weather courtesy of forecast.io.

METAR (pilot weather report)

Closest report is Claremore Regional Airport, 8.3 nm (15.4 km) ESE. Retrieved 2019/01/17 17:15 UTC (15 minutes ago):

KGCM 171715Z AUTO 32007KT 10SM OVC008 05/04 A3018 RMK AO2 TSNO

TAF (pilot weather forecast)

Closest forecast is Tulsa International Airport, 14.0 nm (25.8 km) WSW. Retrieved 2019/01/17 12:34 UTC (5 hours ago):

TAF KTUL 171131Z 1712/1812 33008KT 4SM BR BKN004 OVC007 FM171500 36004KT P6SM OVC007 FM171800 34006KT P6SM OVC015 FM172100 13004KT P6SM SCT250